sensor_id;sensor_type;location;lat;lon;timestamp;pressure;altitude;pressure_sealevel;temperature;humidity
23164;BME280;31429;42.674;23.350;2023-03-18T00:00:44;95203.63;;;1.07;100.00
23164;BME280;31429;42.674;23.350;2023-03-18T00:01:46;95193.50;;;1.01;100.00
23164;BME280;31429;42.674;23.350;2023-03-18T00:02:47;95197.72;;;1.04;100.00
23164;BME280;31429;42.674;23.350;2023-03-18T00:03:48;95196.88;;;1.03;100.00
23164;BME280;31429;42.674;23.350;2023-03-18T00:04:48;95195.16;;;1.02;100.00
23164;BME280;31429;42.674;23.350;2023-03-18T00:05:50;95199.34;;;0.96;100.00
23164;BME280;31429;42.674;23.350;2023-03-18T00:06:52;95194.28;;;0.93;100.00
23164;BME280;31429;42.674;23.350;2023-03-18T00:07:52;95195.16;;;0.98;100.00
23164;BME280;31429;42.674;23.350;2023-03-18T00:08:53;95190.16;;;1.05;100.00
23164;BME280;31429;42.674;23.350;2023-03-18T00:09:54;95190.13;;;1.02;100.00
23164;BME280;31429;42.674;23.350;2023-03-18T00:10:55;95192.69;;;1.07;100.00
23164;BME280;31429;42.674;23.350;2023-03-18T00:11:58;95176.75;;;1.06;100.00
23164;BME280;31429;42.674;23.350;2023-03-18T00:13:00;95186.00;;;1.07;100.00
23164;BME280;31429;42.674;23.350;2023-03-18T00:14:00;95184.31;;;1.09;100.00
23164;BME280;31429;42.674;23.350;2023-03-18T00:15:01;95185.94;;;0.98;100.00
23164;BME280;31429;42.674;23.350;2023-03-18T00:16:03;95188.38;;;0.85;100.00
23164;BME280;31429;42.674;23.350;2023-03-18T00:17:04;95193.44;;;0.91;100.00
23164;BME280;31429;42.674;23.350;2023-03-18T00:18:05;95186.72;;;0.91;100.00
23164;BME280;31429;42.674;23.350;2023-03-18T00:19:06;95184.25;;;0.96;100.00
23164;BME280;31429;42.674;23.350;2023-03-18T00:20:09;95180.84;;;0.94;100.00
23164;BME280;31429;42.674;23.350;2023-03-18T00:21:12;95180.84;;;0.94;100.00
23164;BME280;31429;42.674;23.350;2023-03-18T00:22:12;95176.72;;;0.99;100.00
23164;BME280;31429;42.674;23.350;2023-03-18T00:23:13;95181.78;;;1.02;100.00
23164;BME280;31429;42.674;23.350;2023-03-18T00:24:14;95175.00;;;0.95;100.00
23164;BME280;31429;42.674;23.350;2023-03-18T00:25:16;95179.16;;;0.82;100.00
23164;BME280;31429;42.674;23.350;2023-03-18T00:26:16;95182.44;;;0.74;100.00
23164;BME280;31429;42.674;23.350;2023-03-18T00:27:18;95183.25;;;0.74;100.00
23164;BME280;31429;42.674;23.350;2023-03-18T00:28:20;95178.22;;;0.71;100.00
23164;BME280;31429;42.674;23.350;2023-03-18T00:29:21;95173.97;;;0.60;100.00
23164;BME280;31429;42.674;23.350;2023-03-18T00:30:22;95180.59;;;0.50;100.00
23164;BME280;31429;42.674;23.350;2023-03-18T00:31:25;95183.06;;;0.44;100.00
23164;BME280;31429;42.674;23.350;2023-03-18T00:32:27;95174.63;;;0.40;100.00
23164;BME280;31429;42.674;23.350;2023-03-18T00:33:28;95170.47;;;0.44;100.00
23164;BME280;31429;42.674;23.350;2023-03-18T00:34:29;95171.28;;;0.37;100.00
23164;BME280;31429;42.674;23.350;2023-03-18T00:35:30;95172.84;;;0.26;100.00
23164;BME280;31429;42.674;23.350;2023-03-18T00:36:30;95170.34;;;0.23;100.00
23164;BME280;31429;42.674;23.350;2023-03-18T00:37:31;95168.63;;;0.20;100.00
23164;BME280;31429;42.674;23.350;2023-03-18T00:38:32;95166.94;;;0.21;100.00
23164;BME280;31429;42.674;23.350;2023-03-18T00:39:34;95167.78;;;0.21;100.00
23164;BME280;31429;42.674;23.350;2023-03-18T00:40:39;95158.63;;;0.28;100.00
23164;BME280;31429;42.674;23.350;2023-03-18T00:41:42;95158.63;;;0.28;100.00
23164;BME280;31429;42.674;23.350;2023-03-18T00:42:45;95162.78;;;0.24;100.00
23164;BME280;31429;42.674;23.350;2023-03-18T00:43:56;95160.22;;;0.18;100.00
23164;BME280;31429;42.674;23.350;2023-03-18T00:44:57;95156.81;;;0.10;100.00
23164;BME280;31429;42.674;23.350;2023-03-18T00:45:58;95158.50;;;0.11;100.00
23164;BME280;31429;42.674;23.350;2023-03-18T00:46:59;95126.56;;;0.01;100.00
23164;BME280;31429;42.674;23.350;2023-03-18T00:48:00;95152.75;;;0.23;100.00
23164;BME280;31429;42.674;23.350;2023-03-18T00:49:03;95156.06;;;0.22;100.00
23164;BME280;31429;42.674;23.350;2023-03-18T00:50:05;95143.47;;;0.16;100.00
23164;BME280;31429;42.674;23.350;2023-03-18T00:51:07;95145.94;;;0.11;100.00
23164;BME280;31429;42.674;23.350;2023-03-18T00:52:10;95145.03;;;0.05;100.00
23164;BME280;31429;42.674;23.350;2023-03-18T00:53:11;95150.03;;;0.00;100.00
23164;BME280;31429;42.674;23.350;2023-03-18T00:54:12;95146.63;;;-0.05;100.00
23164;BME280;31429;42.674;23.350;2023-03-18T00:55:17;95144.97;;;-0.06;100.00
23164;BME280;31429;42.674;23.350;2023-03-18T00:56:19;95149.97;;;-0.08;100.00
23164;BME280;31429;42.674;23.350;2023-03-18T00:57:21;95141.50;;;-0.14;100.00
23164;BME280;31429;42.674;23.350;2023-03-18T00:58:23;95143.19;;;-0.16;100.00
23164;BME280;31429;42.674;23.350;2023-03-18T00:59:25;95138.97;;;-0.19;100.00
23164;BME280;31429;42.674;23.350;2023-03-18T01:00:26;95132.22;;;-0.24;100.00
23164;BME280;31429;42.674;23.350;2023-03-18T01:01:26;95137.25;;;-0.23;100.00
23164;BME280;31429;42.674;23.350;2023-03-18T01:02:27;95134.72;;;-0.23;100.00
23164;BME280;31429;42.674;23.350;2023-03-18T01:03:28;95127.19;;;-0.23;100.00
23164;BME280;31429;42.674;23.350;2023-03-18T01:04:29;95136.44;;;-0.23;100.00
23164;BME280;31429;42.674;23.350;2023-03-18T01:05:30;95135.59;;;-0.24;100.00
23164;BME280;31429;42.674;23.350;2023-03-18T01:06:34;95133.06;;;-0.24;100.00
23164;BME280;31429;42.674;23.350;2023-03-18T01:07:35;95136.41;;;-0.25;100.00
23164;BME280;31429;42.674;23.350;2023-03-18T01:08:36;95136.44;;;-0.22;100.00
23164;BME280;31429;42.674;23.350;2023-03-18T01:09:36;95134.72;;;-0.23;100.00
23164;BME280;31429;42.674;23.350;2023-03-18T01:10:40;95138.94;;;-0.23;100.00
23164;BME280;31429;42.674;23.350;2023-03-18T01:11:40;95128.00;;;-0.27;100.00
23164;BME280;31429;42.674;23.350;2023-03-18T01:12:42;95128.00;;;-0.30;100.00
23164;BME280;31429;42.674;23.350;2023-03-18T01:13:44;95128.81;;;-0.32;100.00
23164;BME280;31429;42.674;23.350;2023-03-18T01:14:45;95117.88;;;-0.36;100.00
23164;BME280;31429;42.674;23.350;2023-03-18T01:15:46;95115.38;;;-0.36;100.00
23164;BME280;31429;42.674;23.350;2023-03-18T01:16:47;95125.53;;;-0.22;100.00
23164;BME280;31429;42.674;23.350;2023-03-18T01:17:48;95123.09;;;-0.15;100.00
23164;BME280;31429;42.674;23.350;2023-03-18T01:18:49;95119.75;;;-0.15;100.00
23164;BME280;31429;42.674;23.350;2023-03-18T01:19:51;95118.78;;;-0.28;100.00
23164;BME280;31429;42.674;23.350;2023-03-18T01:20:52;95126.34;;;-0.26;100.00
23164;BME280;31429;42.674;23.350;2023-03-18T01:21:53;95121.28;;;-0.29;100.00
23164;BME280;31429;42.674;23.350;2023-03-18T01:22:54;95122.16;;;-0.29;100.00
23164;BME280;31429;42.674;23.350;2023-03-18T01:23:56;95116.28;;;-0.29;100.00
23164;BME280;31429;42.674;23.350;2023-03-18T01:24:56;95122.13;;;-0.32;100.00
23164;BME280;31429;42.674;23.350;2023-03-18T01:25:58;95117.91;;;-0.34;100.00
23164;BME280;31429;42.674;23.350;2023-03-18T01:26:58;95122.09;;;-0.33;100.00
23164;BME280;31429;42.674;23.350;2023-03-18T01:27:59;95117.91;;;-0.33;100.00
23164;BME280;31429;42.674;23.350;2023-03-18T01:29:01;95122.16;;;-0.27;100.00
23164;BME280;31429;42.674;23.350;2023-03-18T01:30:04;95123.75;;;-0.34;100.00
23164;BME280;31429;42.674;23.350;2023-03-18T01:31:05;95120.38;;;-0.37;100.00
23164;BME280;31429;42.674;23.350;2023-03-18T01:32:07;95126.19;;;-0.43;100.00
23164;BME280;31429;42.674;23.350;2023-03-18T01:33:09;95116.94;;;-0.45;100.00
23164;BME280;31429;42.674;23.350;2023-03-18T01:34:10;95115.25;;;-0.48;100.00
23164;BME280;31429;42.674;23.350;2023-03-18T01:35:11;95113.53;;;-0.50;100.00
23164;BME280;31429;42.674;23.350;2023-03-18T01:36:12;95116.09;;;-0.49;100.00
23164;BME280;31429;42.674;23.350;2023-03-18T01:37:13;95112.72;;;-0.48;100.00
23164;BME280;31429;42.674;23.350;2023-03-18T01:38:13;95116.09;;;-0.49;100.00
23164;BME280;31429;42.674;23.350;2023-03-18T01:39:15;95117.75;;;-0.49;100.00
23164;BME280;31429;42.674;23.350;2023-03-18T01:40:17;95114.41;;;-0.50;100.00
23164;BME280;31429;42.674;23.350;2023-03-18T01:41:17;95115.22;;;-0.51;100.00
23164;BME280;31429;42.674;23.350;2023-03-18T01:42:18;95115.22;;;-0.51;100.00
23164;BME280;31429;42.674;23.350;2023-03-18T01:43:24;95105.16;;;-0.54;100.00
23164;BME280;31429;42.674;23.350;2023-03-18T01:44:27;95112.75;;;-0.46;100.00
23164;BME280;31429;42.674;23.350;2023-03-18T01:45:28;95107.75;;;-0.46;100.00
23164;BME280;31429;42.674;23.350;2023-03-18T01:46:35;95115.25;;;-0.49;100.00
23164;BME280;31429;42.674;23.350;2023-03-18T01:47:36;95111.03;;;-0.52;100.00
23164;BME280;31429;42.674;23.350;2023-03-18T01:48:38;95110.25;;;-0.45;100.00
23164;BME280;31429;42.674;23.350;2023-03-18T01:49:41;95110.38;;;-0.34;100.00
23164;BME280;31429;42.674;23.350;2023-03-18T01:50:44;95110.47;;;-0.24;100.00
23164;BME280;31429;42.674;23.350;2023-03-18T01:51:50;95109.53;;;-0.35;100.00
23164;BME280;31429;42.674;23.350;2023-03-18T01:53:00;95106.00;;;-0.52;100.00
23164;BME280;31429;42.674;23.350;2023-03-18T01:54:04;95111.00;;;-0.55;100.00
23164;BME280;31429;42.674;23.350;2023-03-18T01:55:09;95109.34;;;-0.54;100.00
23164;BME280;31429;42.674;23.350;2023-03-18T01:56:10;95108.47;;;-0.57;100.00
23164;BME280;31429;42.674;23.350;2023-03-18T01:57:12;95107.63;;;-0.59;100.00
23164;BME280;31429;42.674;23.350;2023-03-18T01:58:17;95109.28;;;-0.59;100.00
23164;BME280;31429;42.674;23.350;2023-03-18T01:59:19;95109.28;;;-0.61;100.00
23164;BME280;31429;42.674;23.350;2023-03-18T02:00:23;95105.91;;;-0.63;100.00
23164;BME280;31429;42.674;23.350;2023-03-18T02:01:30;95104.22;;;-0.64;100.00
23164;BME280;31429;42.674;23.350;2023-03-18T02:02:33;95101.72;;;-0.64;100.00
23164;BME280;31429;42.674;23.350;2023-03-18T02:03:34;95105.88;;;-0.64;100.00
23164;BME280;31429;42.674;23.350;2023-03-18T02:04:39;95104.19;;;-0.65;100.00
23164;BME280;31429;42.674;23.350;2023-03-18T02:05:40;95093.31;;;-0.67;100.00
23164;BME280;31429;42.674;23.350;2023-03-18T02:06:42;95095.81;;;-0.67;100.00
23164;BME280;31429;42.674;23.350;2023-03-18T02:07:44;95100.81;;;-0.67;100.00
23164;BME280;31429;42.674;23.350;2023-03-18T02:08:45;95101.66;;;-0.68;100.00
23164;BME280;31429;42.674;23.350;2023-03-18T02:09:46;95098.28;;;-0.70;100.00
23164;BME280;31429;42.674;23.350;2023-03-18T02:10:48;95096.63;;;-0.71;100.00
23164;BME280;31429;42.674;23.350;2023-03-18T02:11:50;95093.31;;;-0.67;100.00
23164;BME280;31429;42.674;23.350;2023-03-18T02:12:56;95089.97;;;-0.66;100.00
23164;BME280;31429;42.674;23.350;2023-03-18T02:13:58;95094.97;;;-0.69;100.00
23164;BME280;31429;42.674;23.350;2023-03-18T02:15:00;95095.81;;;-0.69;100.00
23164;BME280;31429;42.674;23.350;2023-03-18T02:16:05;95098.28;;;-0.72;100.00
23164;BME280;31429;42.674;23.350;2023-03-18T02:17:09;95096.56;;;-0.76;100.00
23164;BME280;31429;42.674;23.350;2023-03-18T02:18:21;95093.22;;;-0.73;100.00
23164;BME280;31429;42.674;23.350;2023-03-18T02:19:34;95085.75;;;-0.70;100.00
23164;BME280;31429;42.674;23.350;2023-03-18T02:20:47;95094.97;;;-0.69;100.00
23164;BME280;31429;42.674;23.350;2023-03-18T02:21:57;95089.91;;;-0.72;100.00
23164;BME280;31429;42.674;23.350;2023-03-18T02:23:08;95094.94;;;-0.72;100.00
23164;BME280;31429;42.674;23.350;2023-03-18T02:24:21;95089.03;;;-0.77;100.00
23164;BME280;31429;42.674;23.350;2023-03-18T02:25:31;95095.72;;;-0.78;100.00
23164;BME280;31429;42.674;23.350;2023-03-18T02:26:41;95088.28;;;-0.69;100.00
23164;BME280;31429;42.674;23.350;2023-03-18T02:27:47;95095.06;;;-0.60;100.00
23164;BME280;31429;42.674;23.350;2023-03-18T02:28:51;95095.09;;;-0.55;100.00
23164;BME280;31429;42.674;23.350;2023-03-18T02:29:56;95097.63;;;-0.54;100.00
23164;BME280;31429;42.674;23.350;2023-03-18T02:30:59;95100.16;;;-0.54;100.00
23164;BME280;31429;42.674;23.350;2023-03-18T02:32:04;95104.34;;;-0.50;100.00
23164;BME280;31429;42.674;23.350;2023-03-18T02:33:08;95095.16;;;-0.49;100.00
23164;BME280;31429;42.674;23.350;2023-03-18T02:34:10;95096.88;;;-0.44;100.00
23164;BME280;31429;42.674;23.350;2023-03-18T02:35:12;95095.19;;;-0.45;100.00
23164;BME280;31429;42.674;23.350;2023-03-18T02:36:17;95099.41;;;-0.39;100.00
23164;BME280;31429;42.674;23.350;2023-03-18T02:37:18;95096.16;;;-0.32;100.00
23164;BME280;31429;42.674;23.350;2023-03-18T02:38:19;95081.88;;;-0.36;100.00
23164;BME280;31429;42.674;23.350;2023-03-18T02:39:21;95094.47;;;-0.33;100.00
23164;BME280;31429;42.674;23.350;2023-03-18T02:40:26;95092.78;;;-0.33;100.00
23164;BME280;31429;42.674;23.350;2023-03-18T02:41:31;95095.25;;;-0.40;100.00
23164;BME280;31429;42.674;23.350;2023-03-18T02:42:32;95100.25;;;-0.42;100.00
23164;BME280;31429;42.674;23.350;2023-03-18T02:43:34;95099.50;;;-0.30;100.00
23164;BME280;31429;42.674;23.350;2023-03-18T02:44:39;95100.31;;;-0.36;100.00
23164;BME280;31429;42.674;23.350;2023-03-18T02:45:46;95092.66;;;-0.49;100.00
23164;BME280;31429;42.674;23.350;2023-03-18T02:46:52;95089.16;;;-0.64;100.00
23164;BME280;31429;42.674;23.350;2023-03-18T02:47:56;95099.13;;;-0.70;100.00
23164;BME280;31429;42.674;23.350;2023-03-18T02:49:00;95091.53;;;-0.76;100.00
23164;BME280;31429;42.674;23.350;2023-03-18T02:50:01;95090.66;;;-0.79;100.00
23164;BME280;31429;42.674;23.350;2023-03-18T02:51:04;95093.97;;;-0.82;100.00
23164;BME280;31429;42.674;23.350;2023-03-18T02:52:05;95086.44;;;-0.83;100.00
23164;BME280;31429;42.674;23.350;2023-03-18T02:53:06;95084.72;;;-0.87;100.00
23164;BME280;31429;42.674;23.350;2023-03-18T02:54:09;95096.44;;;-0.86;100.00
23164;BME280;31429;42.674;23.350;2023-03-18T02:55:10;95097.34;;;-0.83;100.00
23164;BME280;31429;42.674;23.350;2023-03-18T02:56:12;95087.38;;;-0.77;100.00
23164;BME280;31429;42.674;23.350;2023-03-18T02:57:13;95096.69;;;-0.64;100.00
23164;BME280;31429;42.674;23.350;2023-03-18T02:58:14;95091.81;;;-0.45;100.00
23164;BME280;31429;42.674;23.350;2023-03-18T02:59:16;95091.03;;;-0.41;100.00
23164;BME280;31429;42.674;23.350;2023-03-18T03:00:17;95083.53;;;-0.37;100.00
23164;BME280;31429;42.674;23.350;2023-03-18T03:01:19;95086.16;;;-0.26;100.00
23164;BME280;31429;42.674;23.350;2023-03-18T03:02:19;95093.78;;;-0.17;100.00
23164;BME280;31429;42.674;23.350;2023-03-18T03:03:20;95086.25;;;-0.17;100.00
23164;BME280;31429;42.674;23.350;2023-03-18T03:04:22;95088.81;;;-0.10;100.00
23164;BME280;31429;42.674;23.350;2023-03-18T03:05:23;95085.47;;;-0.09;100.00
23164;BME280;31429;42.674;23.350;2023-03-18T03:06:24;95092.16;;;-0.08;100.00
23164;BME280;31429;42.674;23.350;2023-03-18T03:07:26;95092.06;;;-0.21;100.00
23164;BME280;31429;42.674;23.350;2023-03-18T03:08:27;95096.97;;;-0.35;100.00
23164;BME280;31429;42.674;23.350;2023-03-18T03:09:28;95090.16;;;-0.46;100.00
23164;BME280;31429;42.674;23.350;2023-03-18T03:10:30;95101.88;;;-0.45;100.00
23164;BME280;31429;42.674;23.350;2023-03-18T03:11:31;95100.28;;;-0.39;100.00
23164;BME280;31429;42.674;23.350;2023-03-18T03:12:32;95099.50;;;-0.30;100.00
23164;BME280;31429;42.674;23.350;2023-03-18T03:13:33;95094.50;;;-0.27;100.00
23164;BME280;31429;42.674;23.350;2023-03-18T03:14:35;95096.22;;;-0.26;100.00
23164;BME280;31429;42.674;23.350;2023-03-18T03:15:36;95099.53;;;-0.27;100.00
23164;BME280;31429;42.674;23.350;2023-03-18T03:16:37;95094.41;;;-0.39;100.00
23164;BME280;31429;42.674;23.350;2023-03-18T03:17:37;95105.22;;;-0.45;100.00
23164;BME280;31429;42.674;23.350;2023-03-18T03:18:38;95105.25;;;-0.42;100.00
23164;BME280;31429;42.674;23.350;2023-03-18T03:19:39;95101.94;;;-0.39;100.00
23164;BME280;31429;42.674;23.350;2023-03-18T03:20:40;95100.25;;;-0.43;100.00
23164;BME280;31429;42.674;23.350;2023-03-18T03:21:41;95098.41;;;-0.57;100.00
23164;BME280;31429;42.674;23.350;2023-03-18T03:22:42;95103.31;;;-0.70;100.00
23164;BME280;31429;42.674;23.350;2023-03-18T03:23:44;95108.19;;;-0.82;100.00
23164;BME280;31429;42.674;23.350;2023-03-18T03:24:44;95112.31;;;-0.89;100.00
23164;BME280;31429;42.674;23.350;2023-03-18T03:25:45;95109.75;;;-0.93;100.00
23164;BME280;31429;42.674;23.350;2023-03-18T03:26:46;95118.03;;;-1.00;100.00
23164;BME280;31429;42.674;23.350;2023-03-18T03:27:46;95108.00;;;-1.00;100.00
23164;BME280;31429;42.674;23.350;2023-03-18T03:28:47;95122.16;;;-1.04;100.00
23164;BME280;31429;42.674;23.350;2023-03-18T03:29:49;95107.16;;;-1.02;100.00
23164;BME280;31429;42.674;23.350;2023-03-18T03:30:50;95108.09;;;-0.91;100.00
23164;BME280;31429;42.674;23.350;2023-03-18T03:31:51;95106.53;;;-0.83;100.00
23164;BME280;31429;42.674;23.350;2023-03-18T03:32:51;95119.06;;;-0.83;100.00
23164;BME280;31429;42.674;23.350;2023-03-18T03:33:52;95111.44;;;-0.92;100.00
23164;BME280;31429;42.674;23.350;2023-03-18T03:34:53;95116.38;;;-0.98;100.00
23164;BME280;31429;42.674;23.350;2023-03-18T03:35:53;95116.34;;;-1.03;100.00
23164;BME280;31429;42.674;23.350;2023-03-18T03:36:54;95120.72;;;-0.82;100.00
23164;BME280;31429;42.674;23.350;2023-03-18T03:37:56;95114.25;;;-0.62;100.00
23164;BME280;31429;42.674;23.350;2023-03-18T03:38:56;95104.34;;;-0.51;100.00
23164;BME280;31429;42.674;23.350;2023-03-18T03:39:57;95106.00;;;-0.50;100.00
23164;BME280;31429;42.674;23.350;2023-03-18T03:40:59;95114.44;;;-0.47;100.00
23164;BME280;31429;42.674;23.350;2023-03-18T03:42:00;95115.25;;;-0.48;100.00
23164;BME280;31429;42.674;23.350;2023-03-18T03:43:00;95111.88;;;-0.50;100.00
23164;BME280;31429;42.674;23.350;2023-03-18T03:44:01;95112.72;;;-0.48;100.00
23164;BME280;31429;42.674;23.350;2023-03-18T03:45:04;95109.41;;;-0.48;100.00
23164;BME280;31429;42.674;23.350;2023-03-18T03:46:06;95112.75;;;-0.45;100.00
23164;BME280;31429;42.674;23.350;2023-03-18T03:47:06;95109.38;;;-0.50;100.00
23164;BME280;31429;42.674;23.350;2023-03-18T03:48:08;95100.16;;;-0.54;100.00
23164;BME280;31429;42.674;23.350;2023-03-18T03:49:08;95109.22;;;-0.65;100.00
23164;BME280;31429;42.674;23.350;2023-03-18T03:50:10;95119.91;;;-0.83;100.00
23164;BME280;31429;42.674;23.350;2023-03-18T03:51:11;95122.25;;;-0.96;100.00
23164;BME280;31429;42.674;23.350;2023-03-18T03:52:11;95121.34;;;-1.01;100.00
23164;BME280;31429;42.674;23.350;2023-03-18T03:53:12;95119.56;;;-1.11;100.00
23164;BME280;31429;42.674;23.350;2023-03-18T03:54:13;95122.09;;;-1.10;100.00
23164;BME280;31429;42.674;23.350;2023-03-18T03:55:17;95115.38;;;-1.14;100.00
23164;BME280;31429;42.674;23.350;2023-03-18T03:56:18;95126.25;;;-1.10;100.00
23164;BME280;31429;42.674;23.350;2023-03-18T03:57:19;95122.00;;;-1.16;100.00
23164;BME280;31429;42.674;23.350;2023-03-18T03:58:20;95120.25;;;-1.22;100.00
23164;BME280;31429;42.674;23.350;2023-03-18T03:59:21;95117.69;;;-1.29;100.00
23164;BME280;31429;42.674;23.350;2023-03-18T04:00:23;95128.56;;;-1.27;100.00
23164;BME280;31429;42.674;23.350;2023-03-18T04:01:24;95124.38;;;-1.27;100.00
23164;BME280;31429;42.674;23.350;2023-03-18T04:02:24;95128.56;;;-1.27;100.00
23164;BME280;31429;42.674;23.350;2023-03-18T04:03:26;95124.34;;;-1.30;100.00
23164;BME280;31429;42.674;23.350;2023-03-18T04:04:27;95121.78;;;-1.34;100.00
23164;BME280;31429;42.674;23.350;2023-03-18T04:05:28;95125.16;;;-1.34;100.00
23164;BME280;31429;42.674;23.350;2023-03-18T04:06:29;95117.53;;;-1.40;100.00
23164;BME280;31429;42.674;23.350;2023-03-18T04:07:30;95118.53;;;-1.27;100.00
23164;BME280;31429;42.674;23.350;2023-03-18T04:08:31;95128.81;;;-1.09;100.00
23164;BME280;31429;42.674;23.350;2023-03-18T04:09:31;95127.09;;;-1.10;100.00
23164;BME280;31429;42.674;23.350;2023-03-18T04:10:34;95125.38;;;-1.16;100.00
23164;BME280;31429;42.674;23.350;2023-03-18T04:11:36;95127.75;;;-1.25;100.00
23164;BME280;31429;42.674;23.350;2023-03-18T04:12:37;95134.38;;;-1.30;100.00
23164;BME280;31429;42.674;23.350;2023-03-18T04:13:37;95134.28;;;-1.36;100.00
23164;BME280;31429;42.674;23.350;2023-03-18T04:14:38;95134.34;;;-1.33;100.00
23164;BME280;31429;42.674;23.350;2023-03-18T04:15:40;95131.88;;;-1.31;100.00
23164;BME280;31429;42.674;23.350;2023-03-18T04:16:41;95135.28;;;-1.25;100.00
23164;BME280;31429;42.674;23.350;2023-03-18T04:17:42;95141.41;;;-1.03;100.00
23164;BME280;31429;42.674;23.350;2023-03-18T04:18:43;95139.91;;;-0.87;100.00
23164;BME280;31429;42.674;23.350;2023-03-18T04:19:43;95132.50;;;-0.80;100.00
23164;BME280;31429;42.674;23.350;2023-03-18T04:20:45;95139.16;;;-0.83;100.00
23164;BME280;31429;42.674;23.350;2023-03-18T04:21:45;95139.03;;;-0.91;100.00
23164;BME280;31429;42.674;23.350;2023-03-18T04:22:46;95135.59;;;-0.99;100.00
23164;BME280;31429;42.674;23.350;2023-03-18T04:23:47;95145.63;;;-1.00;100.00
23164;BME280;31429;42.674;23.350;2023-03-18T04:24:47;95141.25;;;-1.15;100.00
23164;BME280;31429;42.674;23.350;2023-03-18T04:25:48;95151.16;;;-1.26;100.00
23164;BME280;31429;42.674;23.350;2023-03-18T04:26:49;95149.44;;;-1.30;100.00
23164;BME280;31429;42.674;23.350;2023-03-18T04:27:50;95147.63;;;-1.38;100.00
23164;BME280;31429;42.674;23.350;2023-03-18T04:28:52;95156.81;;;-1.39;100.00
23164;BME280;31429;42.674;23.350;2023-03-18T04:29:52;95154.25;;;-1.42;100.00
23164;BME280;31429;42.674;23.350;2023-03-18T04:30:55;95149.19;;;-1.46;100.00
23164;BME280;31429;42.674;23.350;2023-03-18T04:31:55;95145.75;;;-1.53;100.00
23164;BME280;31429;42.674;23.350;2023-03-18T04:32:56;95148.44;;;-1.41;100.00
23164;BME280;31429;42.674;23.350;2023-03-18T04:33:58;95164.31;;;-1.40;100.00
23164;BME280;31429;42.674;23.350;2023-03-18T04:34:59;95157.63;;;-1.41;100.00
23164;BME280;31429;42.674;23.350;2023-03-18T04:36:00;95158.50;;;-1.38;100.00
23164;BME280;31429;42.674;23.350;2023-03-18T04:37:00;95163.56;;;-1.33;100.00
23164;BME280;31429;42.674;23.350;2023-03-18T04:38:01;95160.31;;;-1.28;100.00
23164;BME280;31429;42.674;23.350;2023-03-18T04:39:02;95163.06;;;-1.11;100.00
23164;BME280;31429;42.674;23.350;2023-03-18T04:40:04;95167.28;;;-1.07;100.00
23164;BME280;31429;42.674;23.350;2023-03-18T04:41:05;95156.41;;;-1.07;100.00
23164;BME280;31429;42.674;23.350;2023-03-18T04:42:06;95166.47;;;-1.06;100.00
23164;BME280;31429;42.674;23.350;2023-03-18T04:43:07;95171.44;;;-1.07;100.00
23164;BME280;31429;42.674;23.350;2023-03-18T04:44:09;95168.00;;;-1.16;100.00
23164;BME280;31429;42.674;23.350;2023-03-18T04:45:11;95167.94;;;-1.20;100.00
23164;BME280;31429;42.674;23.350;2023-03-18T04:46:13;95167.06;;;-1.25;100.00
23164;BME280;31429;42.674;23.350;2023-03-18T04:47:15;95171.22;;;-1.26;100.00
23164;BME280;31429;42.674;23.350;2023-03-18T04:48:15;95173.69;;;-1.27;100.00
23164;BME280;31429;42.674;23.350;2023-03-18T04:49:16;95181.25;;;-1.26;100.00
23164;BME280;31429;42.674;23.350;2023-03-18T04:50:17;95178.75;;;-1.24;100.00
23164;BME280;31429;42.674;23.350;2023-03-18T04:51:18;95173.69;;;-1.27;100.00
23164;BME280;31429;42.674;23.350;2023-03-18T04:52:20;95178.75;;;-1.24;100.00
23164;BME280;31429;42.674;23.350;2023-03-18T04:53:20;95173.81;;;-1.20;100.00
23164;BME280;31429;42.674;23.350;2023-03-18T04:54:21;95180.59;;;-1.14;100.00
23164;BME280;31429;42.674;23.350;2023-03-18T04:55:22;95172.28;;;-1.08;100.00
23164;BME280;31429;42.674;23.350;2023-03-18T04:56:23;95179.88;;;-1.04;100.00
23164;BME280;31429;42.674;23.350;2023-03-18T04:57:24;95177.44;;;-0.96;100.00
23164;BME280;31429;42.674;23.350;2023-03-18T04:58:25;95172.63;;;-0.83;100.00
23164;BME280;31429;42.674;23.350;2023-03-18T04:59:26;95171.78;;;-0.83;100.00
23164;BME280;31429;42.674;23.350;2023-03-18T05:00:26;95169.25;;;-0.83;100.00
23164;BME280;31429;42.674;23.350;2023-03-18T05:01:29;95171.00;;;-0.78;100.00
23164;BME280;31429;42.674;23.350;2023-03-18T05:02:30;95176.09;;;-0.70;100.00
23164;BME280;31429;42.674;23.350;2023-03-18T05:03:30;95176.22;;;-0.60;100.00
23164;BME280;31429;42.674;23.350;2023-03-18T05:04:31;95175.38;;;-0.60;100.00
23164;BME280;31429;42.674;23.350;2023-03-18T05:05:33;95169.41;;;-0.70;100.00
23164;BME280;31429;42.674;23.350;2023-03-18T05:06:33;95175.25;;;-0.71;100.00
23164;BME280;31429;42.674;23.350;2023-03-18T05:07:34;95171.97;;;-0.67;100.00
23164;BME280;31429;42.674;23.350;2023-03-18T05:08:35;95172.97;;;-0.51;100.00
23164;BME280;31429;42.674;23.350;2023-03-18T05:09:35;95175.59;;;-0.40;100.00
23164;BME280;31429;42.674;23.350;2023-03-18T05:10:36;95172.41;;;-0.26;100.00
23164;BME280;31429;42.674;23.350;2023-03-18T05:11:36;95169.94;;;-0.21;100.00
23164;BME280;31429;42.674;23.350;2023-03-18T05:12:37;95167.31;;;-0.32;100.00
23164;BME280;31429;42.674;23.350;2023-03-18T05:13:38;95161.38;;;-0.40;100.00
23164;BME280;31429;42.674;23.350;2023-03-18T05:14:40;95166.41;;;-0.40;100.00
23164;BME280;31429;42.674;23.350;2023-03-18T05:15:41;95159.72;;;-0.38;100.00
23164;BME280;31429;42.674;23.350;2023-03-18T05:16:43;95156.28;;;-0.46;100.00
23164;BME280;31429;42.674;23.350;2023-03-18T05:17:44;95163.16;;;-0.28;100.00
23164;BME280;31429;42.674;23.350;2023-03-18T05:18:45;95159.78;;;-0.30;100.00
23164;BME280;31429;42.674;23.350;2023-03-18T05:19:47;95163.16;;;-0.28;100.00